createdAt,value
2022-11-27T00:01:26.920Z,6.60
2022-11-27T00:03:55.259Z,6.53
2022-11-27T00:06:25.149Z,6.85
2022-11-27T00:08:51.901Z,7.20
2022-11-27T00:11:24.245Z,6.65
2022-11-27T00:13:51.476Z,6.68
2022-11-27T00:16:19.548Z,7.10
2022-11-27T00:18:47.572Z,7.15
2022-11-27T00:21:17.204Z,6.32
2022-11-27T00:23:44.254Z,6.90
2022-11-27T00:26:11.467Z,6.53
2022-11-27T00:28:38.655Z,7.43
2022-11-27T00:31:15.097Z,6.50
2022-11-27T00:33:41.629Z,6.43
2022-11-27T00:36:08.786Z,5.95
2022-11-27T00:38:41.086Z,5.93
2022-11-27T00:41:09.789Z,6.65
2022-11-27T00:43:44.198Z,6.40
2022-11-27T00:46:16.914Z,6.32
2022-11-27T00:48:43.963Z,5.38
2022-11-27T00:51:14.059Z,6.00
2022-11-27T00:53:41.270Z,5.88
2022-11-27T00:56:08.669Z,6.32
2022-11-27T00:58:35.482Z,5.82
2022-11-27T01:01:05.523Z,6.40
2022-11-27T01:03:33.474Z,5.90
2022-11-27T01:06:09.814Z,6.50
2022-11-27T01:08:36.368Z,5.78
2022-11-27T01:11:03.112Z,5.60
2022-11-27T01:13:35.061Z,6.22
2022-11-27T01:16:06.267Z,5.80
2022-11-27T01:18:34.056Z,6.13
2022-11-27T01:21:01.232Z,5.90
2022-11-27T01:23:28.238Z,5.82
2022-11-27T01:25:55.013Z,6.15
2022-11-27T01:28:23.814Z,5.80
2022-11-27T01:30:51.385Z,5.78
2022-11-27T01:33:19.101Z,5.90
2022-11-27T01:36:03.212Z,6.20
2022-11-27T01:38:31.137Z,5.95
2022-11-27T01:41:07.918Z,6.63
2022-11-27T01:43:40.740Z,7.03
2022-11-27T01:46:41.813Z,6.60
2022-11-27T01:49:11.038Z,6.53
2022-11-27T01:51:46.281Z,6.65
2022-11-27T01:54:14.917Z,6.05
2022-11-27T01:56:43.666Z,6.78
2022-11-27T01:59:10.340Z,6.47
2022-11-27T02:01:37.135Z,6.93
2022-11-27T02:04:04.128Z,6.78
2022-11-27T02:06:31.024Z,6.20
2022-11-27T02:08:57.910Z,6.55
2022-11-27T02:11:52.917Z,6.50
2022-11-27T02:14:36.247Z,6.47
2022-11-27T02:17:14.618Z,6.70
2022-11-27T02:20:11.929Z,6.75
2022-11-27T02:23:19.817Z,5.88
2022-11-27T02:26:22.688Z,6.13
2022-11-27T02:29:12.721Z,6.57
2022-11-27T02:32:05.049Z,7.40
2022-11-27T02:34:45.317Z,6.45
2022-11-27T02:37:20.839Z,6.95
2022-11-27T02:39:59.379Z,6.57
2022-11-27T02:42:29.095Z,6.53
2022-11-27T02:45:03.312Z,6.82
2022-11-27T02:47:30.883Z,6.15
2022-11-27T02:49:59.004Z,6.75
2022-11-27T02:52:27.687Z,6.60
2022-11-27T02:55:03.562Z,6.47
2022-11-27T02:57:31.257Z,6.32
2022-11-27T02:59:58.520Z,6.28
2022-11-27T03:02:33.767Z,6.35
2022-11-27T03:05:03.724Z,6.78
2022-11-27T03:07:39.515Z,6.53
2022-11-27T03:10:12.827Z,6.03
2022-11-27T03:12:39.651Z,5.50
2022-11-27T03:15:06.940Z,5.78
2022-11-27T03:17:59.630Z,6.00
2022-11-27T03:20:31.016Z,6.85
2022-11-27T03:22:57.651Z,6.20
2022-11-27T03:25:24.996Z,6.70
2022-11-27T03:27:59.889Z,7.05
2022-11-27T03:30:26.976Z,5.85
2022-11-27T03:32:54.314Z,6.32
2022-11-27T03:35:24.852Z,7.35
2022-11-27T03:37:51.675Z,6.30
2022-11-27T03:40:19.130Z,7.07
2022-11-27T03:43:06.660Z,6.22
2022-11-27T03:45:50.311Z,6.60
2022-11-27T03:48:58.304Z,6.30
2022-11-27T03:51:31.723Z,5.88
2022-11-27T03:54:11.351Z,6.35
2022-11-27T03:56:43.531Z,6.35
2022-11-27T03:59:18.214Z,6.22
2022-11-27T04:01:44.865Z,5.60
2022-11-27T04:04:11.660Z,6.18
2022-11-27T04:06:38.487Z,5.65
2022-11-27T04:09:05.280Z,5.57
2022-11-27T04:11:32.089Z,6.10
2022-11-27T04:13:59.305Z,6.32
2022-11-27T04:16:26.035Z,5.93
2022-11-27T04:18:52.991Z,6.07
2022-11-27T04:21:19.801Z,5.25
2022-11-27T04:23:46.561Z,6.07
2022-11-27T04:26:13.323Z,5.60
2022-11-27T04:28:40.405Z,5.55
2022-11-27T04:31:07.038Z,5.20
2022-11-27T04:33:33.961Z,5.80
2022-11-27T04:36:00.685Z,5.72
2022-11-27T04:38:27.498Z,5.57
2022-11-27T04:40:54.642Z,5.40
2022-11-27T04:43:21.368Z,5.97
2022-11-27T04:45:47.928Z,5.57
2022-11-27T04:48:14.982Z,6.00
2022-11-27T04:50:41.691Z,5.95
2022-11-27T04:53:08.686Z,6.13
2022-11-27T04:55:35.623Z,6.13
2022-11-27T04:58:04.942Z,6.53
2022-11-27T05:00:31.876Z,5.68
2022-11-27T05:03:01.326Z,5.75
2022-11-27T05:05:28.032Z,5.97
2022-11-27T05:07:54.899Z,5.93
2022-11-27T05:10:21.476Z,5.70
2022-11-27T05:12:48.197Z,6.03
2022-11-27T05:15:15.098Z,6.03
2022-11-27T05:17:41.614Z,6.85
2022-11-27T05:20:08.636Z,6.18
2022-11-27T05:22:35.189Z,6.70
2022-11-27T05:25:01.803Z,5.47
2022-11-27T05:27:29.015Z,5.85
2022-11-27T05:29:55.537Z,5.75
2022-11-27T05:32:22.229Z,5.90
2022-11-27T05:34:51.966Z,6.05
2022-11-27T05:37:20.008Z,6.03
2022-11-27T05:39:47.071Z,6.53
2022-11-27T05:42:13.701Z,5.40
2022-11-27T05:44:40.494Z,5.57
2022-11-27T05:47:07.549Z,5.10
2022-11-27T05:49:34.342Z,5.97
2022-11-27T05:52:01.055Z,5.85
2022-11-27T05:54:27.713Z,6.28
2022-11-27T05:56:54.475Z,5.97
2022-11-27T05:59:21.437Z,5.68
2022-11-27T06:01:49.592Z,6.40
2022-11-27T06:04:16.696Z,6.25
2022-11-27T06:06:43.289Z,6.43
2022-11-27T06:09:13.292Z,6.35
2022-11-27T06:11:41.011Z,6.20
2022-11-27T06:14:09.107Z,5.78
2022-11-27T06:16:36.161Z,6.30
2022-11-27T06:19:03.330Z,6.22
2022-11-27T06:21:29.864Z,6.57
2022-11-27T06:23:56.870Z,6.50
2022-11-27T06:26:26.875Z,6.40
2022-11-27T06:28:55.182Z,6.20
2022-11-27T06:31:25.392Z,5.68
2022-11-27T06:33:53.471Z,6.15
2022-11-27T06:36:22.361Z,5.78
2022-11-27T06:38:48.929Z,6.00
2022-11-27T06:41:22.332Z,6.13
2022-11-27T06:43:49.028Z,5.18
2022-11-27T06:46:18.198Z,5.78
2022-11-27T06:48:46.804Z,6.15
2022-11-27T06:51:16.114Z,5.57
2022-11-27T06:53:43.233Z,5.95
2022-11-27T06:56:15.244Z,5.82
2022-11-27T06:58:42.928Z,6.22
2022-11-27T07:01:13.618Z,5.30
2022-11-27T07:03:40.495Z,5.57
2022-11-27T07:06:09.511Z,6.10
2022-11-27T07:08:36.558Z,5.60
2022-11-27T07:11:08.872Z,5.60
2022-11-27T07:13:35.748Z,5.35
2022-11-27T07:16:04.477Z,5.47
2022-11-27T07:18:34.459Z,4.93
2022-11-27T07:21:01.180Z,5.43
2022-11-27T07:23:27.794Z,5.32
2022-11-27T07:25:54.718Z,6.25
2022-11-27T07:28:21.523Z,5.47
2022-11-27T07:30:58.574Z,5.38
2022-11-27T07:33:25.970Z,5.82
2022-11-27T07:36:12.675Z,5.70
2022-11-27T07:38:39.487Z,6.55
2022-11-27T07:41:07.083Z,7.45
2022-11-27T07:43:35.022Z,6.95
2022-11-27T07:46:11.852Z,6.32
2022-11-27T07:48:38.597Z,6.10
2022-11-27T07:51:14.905Z,6.75
2022-11-27T07:53:42.524Z,7.80
2022-11-27T07:56:11.194Z,7.65
2022-11-27T07:58:38.042Z,7.75
2022-11-27T08:01:13.377Z,7.38
2022-11-27T08:03:40.507Z,8.10
2022-11-27T08:06:15.104Z,14.30
2022-11-27T08:08:41.629Z,8.13
2022-11-27T08:11:15.919Z,6.85
2022-11-27T08:13:42.558Z,5.95
2022-11-27T08:16:09.674Z,5.47
2022-11-27T08:18:36.298Z,7.13
2022-11-27T08:21:02.984Z,7.93
2022-11-27T08:23:32.738Z,7.55
2022-11-27T08:25:59.368Z,7.30
2022-11-27T08:28:26.190Z,7.55
2022-11-27T08:31:09.473Z,6.75
2022-11-27T08:33:36.601Z,6.57
2022-11-27T08:36:04.658Z,6.90
2022-11-27T08:38:31.929Z,7.13
2022-11-27T08:41:02.232Z,6.50
2022-11-27T08:43:31.925Z,6.97
2022-11-27T08:45:59.071Z,6.53
2022-11-27T08:48:26.226Z,7.10
2022-11-27T08:50:53.218Z,6.20
2022-11-27T08:53:20.341Z,5.75
2022-11-27T08:55:47.022Z,5.38
2022-11-27T08:58:14.128Z,6.47
2022-11-27T09:00:41.731Z,6.88
2022-11-27T09:03:11.583Z,6.50
2022-11-27T09:05:43.388Z,6.00
2022-11-27T09:08:10.007Z,5.45
2022-11-27T09:10:37.118Z,6.63
2022-11-27T09:13:03.779Z,5.95
2022-11-27T09:15:30.839Z,6.28
2022-11-27T09:17:58.036Z,6.38
2022-11-27T09:20:24.676Z,5.93
2022-11-27T09:22:51.376Z,5.93
2022-11-27T09:25:18.192Z,5.70
2022-11-27T09:27:44.886Z,6.53
2022-11-27T09:30:12.069Z,5.90
2022-11-27T09:32:38.703Z,6.03
2022-11-27T09:35:05.757Z,5.95
2022-11-27T09:37:32.830Z,6.40
2022-11-27T09:39:59.666Z,7.45
2022-11-27T09:42:40.601Z,6.95
2022-11-27T09:45:14.395Z,12.35
2022-11-27T09:47:42.319Z,21.40
2022-11-27T09:50:14.100Z,16.55
2022-11-27T09:53:13.428Z,10.30
2022-11-27T09:55:46.672Z,7.35
2022-11-27T09:58:22.119Z,8.10
2022-11-27T10:00:48.833Z,9.52
2022-11-27T10:03:25.727Z,7.80
2022-11-27T10:06:16.820Z,8.80
2022-11-27T10:08:50.774Z,8.30
2022-11-27T10:11:23.290Z,8.50
2022-11-27T10:14:02.566Z,8.32
2022-11-27T10:16:44.038Z,6.65
2022-11-27T10:19:26.452Z,8.60
2022-11-27T10:22:19.496Z,7.68
2022-11-27T10:25:17.763Z,6.97
2022-11-27T10:28:04.964Z,7.85
2022-11-27T10:30:37.461Z,10.13
2022-11-27T10:33:08.653Z,6.65
2022-11-27T10:35:35.308Z,6.07
2022-11-27T10:38:23.964Z,4.97
2022-11-27T10:44:50.331Z,5.55
2022-11-27T10:47:18.458Z,5.25
2022-11-27T10:49:47.251Z,5.03
2022-11-27T10:52:16.752Z,5.72
2022-11-27T10:54:49.407Z,6.15
2022-11-27T10:57:34.235Z,5.80
2022-11-27T11:00:23.287Z,5.50
2022-11-27T11:03:03.562Z,6.05
2022-11-27T11:05:45.482Z,7.75
2022-11-27T11:08:21.690Z,9.63
2022-11-27T11:10:54.560Z,6.05
2022-11-27T11:13:28.615Z,6.35
2022-11-27T11:16:24.125Z,8.20
2022-11-27T11:18:53.573Z,9.77
2022-11-27T11:21:28.811Z,5.97
2022-11-27T11:24:05.058Z,6.63
2022-11-27T11:26:36.242Z,14.85
2022-11-27T11:29:07.041Z,10.63
2022-11-27T11:31:38.684Z,8.55
2022-11-27T11:34:17.539Z,7.18
2022-11-27T11:36:56.229Z,7.05
2022-11-27T11:39:26.024Z,6.25
2022-11-27T11:41:52.564Z,5.65
2022-11-27T11:44:24.022Z,4.65
2022-11-27T11:46:53.855Z,6.45
2022-11-27T11:49:26.068Z,7.25
2022-11-27T11:52:01.704Z,7.72
2022-11-27T11:54:43.351Z,7.07
2022-11-27T11:57:30.971Z,6.28
2022-11-27T12:00:30.310Z,4.70
2022-11-27T12:03:17.783Z,5.20
2022-11-27T12:06:06.179Z,5.75
2022-11-27T12:08:54.482Z,6.43
2022-11-27T12:11:36.362Z,5.70
2022-11-27T12:14:25.841Z,5.85
2022-11-27T12:17:03.474Z,5.90
2022-11-27T12:19:50.565Z,5.43
2022-11-27T12:22:23.700Z,6.35
2022-11-27T12:25:09.247Z,5.03
2022-11-27T12:28:10.880Z,4.35
2022-11-27T12:31:03.030Z,4.30
2022-11-27T12:33:35.383Z,4.78
2022-11-27T12:36:17.098Z,4.00
2022-11-27T12:38:56.331Z,4.68
2022-11-27T12:41:35.933Z,4.10
2022-11-27T12:44:02.747Z,4.10
2022-11-27T12:46:58.710Z,4.20
2022-11-27T12:49:34.826Z,4.50
2022-11-27T12:52:11.561Z,4.88
2022-11-27T12:55:02.005Z,4.68
2022-11-27T12:57:43.686Z,4.05
2022-11-27T13:00:19.918Z,4.60
2022-11-27T13:03:01.075Z,3.97
2022-11-27T13:05:36.942Z,4.00
2022-11-27T13:08:21.474Z,4.65
2022-11-27T13:10:55.687Z,4.60
2022-11-27T13:13:30.161Z,4.57
2022-11-27T13:16:15.524Z,4.63
2022-11-27T13:19:10.374Z,4.40
2022-11-27T13:21:39.309Z,5.10
2022-11-27T13:24:06.293Z,5.00
2022-11-27T13:27:01.762Z,6.50
2022-11-27T13:29:40.598Z,5.95
2022-11-27T13:32:08.790Z,4.57
2022-11-27T13:34:45.511Z,5.05
2022-11-27T13:37:23.894Z,5.28
2022-11-27T13:39:50.647Z,4.88
2022-11-27T13:42:21.152Z,4.35
2022-11-27T13:45:04.741Z,4.63
2022-11-27T13:47:40.307Z,4.30
2022-11-27T13:50:11.700Z,4.47
2022-11-27T13:52:49.706Z,3.97
2022-11-27T13:55:26.071Z,4.57
2022-11-27T13:57:54.695Z,4.15
2022-11-27T14:00:34.314Z,4.40
2022-11-27T14:03:01.495Z,3.95
2022-11-27T14:05:41.708Z,4.35
2022-11-27T14:08:18.980Z,4.75
2022-11-27T14:11:13.070Z,4.85
2022-11-27T14:13:45.211Z,5.15
2022-11-27T14:16:26.413Z,4.78
2022-11-27T14:18:55.317Z,4.72
2022-11-27T14:21:42.835Z,4.88
2022-11-27T14:24:23.722Z,5.25
2022-11-27T14:26:50.492Z,5.82
2022-11-27T14:29:20.533Z,5.88
2022-11-27T14:32:00.183Z,5.70
2022-11-27T14:34:31.282Z,6.00
2022-11-27T14:36:59.236Z,8.07
2022-11-27T14:39:30.040Z,6.88
2022-11-27T14:41:58.566Z,6.18
2022-11-27T14:44:25.087Z,6.25
2022-11-27T14:46:52.305Z,7.55
2022-11-27T14:49:20.886Z,6.13
2022-11-27T14:51:48.823Z,6.88
2022-11-27T14:54:32.803Z,10.07
2022-11-27T14:56:59.433Z,8.32
2022-11-27T14:59:26.333Z,8.40
2022-11-27T15:02:20.648Z,6.57
2022-11-27T15:04:49.947Z,6.13
2022-11-27T15:07:20.729Z,7.80
2022-11-27T15:09:53.015Z,7.40
2022-11-27T15:12:26.444Z,7.40
2022-11-27T15:14:58.639Z,6.43
2022-11-27T15:17:28.302Z,6.72
2022-11-27T15:19:56.663Z,6.07
2022-11-27T15:22:24.238Z,6.80
2022-11-27T15:25:02.925Z,8.15
2022-11-27T15:27:43.996Z,8.30
2022-11-27T15:30:13.755Z,8.88
2022-11-27T15:32:51.628Z,9.95
2022-11-27T15:35:36.711Z,8.38
2022-11-27T15:38:11.105Z,16.58
2022-11-27T15:40:40.724Z,14.18
2022-11-27T15:43:16.127Z,9.75
2022-11-27T15:45:44.362Z,8.20
2022-11-27T15:48:16.260Z,7.57
2022-11-27T15:50:46.823Z,7.93
2022-11-27T15:53:17.848Z,7.45
2022-11-27T15:55:44.598Z,7.50
2022-11-27T15:58:11.505Z,6.95
2022-11-27T16:00:38.258Z,8.32
2022-11-27T16:03:04.942Z,7.32
2022-11-27T16:05:33.971Z,8.23
2022-11-27T16:08:01.020Z,9.05
2022-11-27T16:10:27.812Z,8.68
2022-11-27T16:12:55.399Z,8.50
2022-11-27T16:15:23.340Z,7.45
2022-11-27T16:17:51.328Z,8.38
2022-11-27T16:20:17.980Z,7.50
2022-11-27T16:22:44.704Z,7.80
2022-11-27T16:25:13.711Z,7.22
2022-11-27T16:27:40.307Z,9.50
2022-11-27T16:30:07.683Z,9.18
2022-11-27T16:32:38.130Z,8.80
2022-11-27T16:35:06.100Z,8.95
2022-11-27T16:37:33.930Z,8.73
2022-11-27T16:40:00.824Z,8.38
2022-11-27T16:42:27.874Z,8.07
2022-11-27T16:44:54.991Z,9.50
2022-11-27T16:47:22.066Z,11.30
2022-11-27T16:49:49.467Z,10.18
2022-11-27T16:52:17.054Z,9.23
2022-11-27T16:54:43.927Z,8.40
2022-11-27T16:57:10.845Z,6.22
2022-11-27T16:59:38.452Z,6.82
2022-11-27T17:02:05.568Z,7.55
2022-11-27T17:04:32.256Z,6.80
2022-11-27T17:07:01.355Z,7.22
2022-11-27T17:09:29.450Z,7.07
2022-11-27T17:11:56.060Z,7.53
2022-11-27T17:14:28.439Z,7.50
2022-11-27T17:16:55.123Z,7.78
2022-11-27T17:19:24.021Z,10.85
2022-11-27T17:21:50.745Z,13.50
2022-11-27T17:24:17.694Z,9.25
2022-11-27T17:26:46.368Z,8.48
2022-11-27T17:29:15.618Z,8.95
2022-11-27T17:31:42.749Z,6.65
2022-11-27T17:34:11.861Z,6.97
2022-11-27T17:36:39.921Z,7.00
2022-11-27T17:39:06.592Z,6.90
2022-11-27T17:41:34.617Z,7.47
2022-11-27T17:44:04.600Z,8.10
2022-11-27T17:46:35.393Z,7.53
2022-11-27T17:49:06.329Z,8.90
2022-11-27T17:51:34.846Z,7.68
2022-11-27T17:54:02.724Z,8.52
2022-11-27T17:56:34.771Z,7.70
2022-11-27T17:59:01.720Z,6.35
2022-11-27T18:01:30.164Z,6.15
2022-11-27T18:04:03.578Z,5.85
2022-11-27T18:06:31.621Z,5.78
2022-11-27T18:09:00.233Z,5.47
2022-11-27T18:11:30.167Z,5.13
2022-11-27T18:13:59.184Z,5.20
2022-11-27T18:16:32.926Z,5.70
2022-11-27T18:19:02.151Z,5.03
2022-11-27T18:21:28.840Z,5.65
2022-11-27T18:27:07.369Z,5.55
2022-11-27T18:29:29.168Z,5.82
2022-11-27T18:31:55.903Z,5.38
2022-11-27T18:34:23.035Z,5.65
2022-11-27T18:36:49.701Z,6.47
2022-11-27T18:39:16.501Z,6.85
2022-11-27T18:41:43.112Z,5.65
2022-11-27T18:44:12.918Z,5.60
2022-11-27T18:46:39.847Z,5.75
2022-11-27T18:49:07.145Z,5.50
2022-11-27T18:51:37.427Z,5.07
2022-11-27T18:54:04.081Z,5.47
2022-11-27T18:56:32.329Z,5.85
2022-11-27T18:59:05.375Z,6.00
2022-11-27T19:01:40.880Z,6.07
2022-11-27T19:04:10.429Z,5.53
2022-11-27T19:06:37.525Z,5.82
2022-11-27T19:09:05.904Z,6.53
2022-11-27T19:11:33.890Z,5.50
2022-11-27T19:14:01.553Z,5.85
2022-11-27T19:16:32.791Z,6.30
2022-11-27T19:19:01.360Z,6.03
2022-11-27T19:21:31.148Z,5.90
2022-11-27T19:23:59.632Z,6.28
2022-11-27T19:26:29.393Z,6.28
2022-11-27T19:28:58.955Z,5.88
2022-11-27T19:31:29.269Z,5.93
2022-11-27T19:34:01.455Z,6.20
2022-11-27T19:36:30.707Z,6.40
2022-11-27T19:39:04.091Z,7.10
2022-11-27T19:41:31.274Z,7.20
2022-11-27T19:44:01.547Z,7.43
2022-11-27T19:46:30.846Z,7.30
2022-11-27T19:49:00.508Z,7.10
2022-11-27T19:51:28.994Z,6.95
2022-11-27T19:53:55.943Z,6.55
2022-11-27T19:56:26.982Z,6.10
2022-11-27T19:58:54.035Z,7.35
2022-11-27T20:01:20.935Z,7.18
2022-11-27T20:03:48.432Z,7.05
2022-11-27T20:06:18.375Z,6.88
2022-11-27T20:08:47.732Z,7.82
2022-11-27T20:11:16.583Z,6.93
2022-11-27T20:13:43.337Z,7.18
2022-11-27T20:16:19.132Z,6.82
2022-11-27T20:18:46.854Z,8.32
2022-11-27T20:21:20.570Z,7.60
2022-11-27T20:23:49.552Z,7.95
2022-11-27T20:26:19.310Z,7.93
2022-11-27T20:28:47.180Z,7.88
2022-11-27T20:31:16.558Z,6.75
2022-11-27T20:33:43.457Z,7.50
2022-11-27T20:36:15.194Z,6.47
2022-11-27T20:38:41.949Z,7.13
2022-11-27T20:41:10.203Z,7.18
2022-11-27T20:43:37.680Z,6.88
2022-11-27T20:46:05.235Z,5.90
2022-11-27T20:48:31.991Z,6.30
2022-11-27T20:51:08.872Z,5.82
2022-11-27T20:53:36.442Z,6.07
2022-11-27T20:56:05.059Z,5.78
2022-11-27T20:58:32.322Z,5.85
2022-11-27T21:01:00.114Z,5.82
2022-11-27T21:03:29.070Z,6.82
2022-11-27T21:05:56.368Z,6.35
2022-11-27T21:08:23.502Z,8.10
2022-11-27T21:10:50.727Z,6.05
2022-11-27T21:13:17.837Z,5.88
2022-11-27T21:15:46.610Z,6.30
2022-11-27T21:18:14.155Z,6.47
2022-11-27T21:20:42.273Z,6.93
2022-11-27T21:23:09.494Z,6.40
2022-11-27T21:25:38.387Z,6.40
2022-11-27T21:28:05.297Z,5.90
2022-11-27T21:30:32.224Z,6.05
2022-11-27T21:32:58.826Z,5.68
2022-11-27T21:35:31.224Z,6.32
2022-11-27T21:37:59.578Z,6.45
2022-11-27T21:40:26.479Z,6.43
2022-11-27T21:42:53.139Z,5.82
2022-11-27T21:45:19.740Z,5.50
2022-11-27T21:47:47.387Z,6.10
2022-11-27T21:50:14.364Z,5.68
2022-11-27T21:52:41.166Z,5.20
2022-11-27T21:55:11.958Z,6.18
2022-11-27T21:57:39.154Z,5.82
2022-11-27T22:00:06.576Z,6.10
2022-11-27T22:02:38.906Z,6.20
2022-11-27T22:05:08.533Z,4.93
2022-11-27T22:07:35.340Z,5.50
2022-11-27T22:10:02.078Z,5.90
2022-11-27T22:12:28.672Z,5.10
2022-11-27T22:14:55.318Z,5.38
2022-11-27T22:17:25.372Z,5.40
2022-11-27T22:19:52.828Z,5.90
2022-11-27T22:22:19.496Z,5.60
2022-11-27T22:24:46.380Z,5.55
2022-11-27T22:27:12.929Z,5.57
2022-11-27T22:29:39.456Z,5.70
2022-11-27T22:32:06.639Z,5.45
2022-11-27T22:34:33.254Z,4.53
2022-11-27T22:37:01.768Z,4.75
2022-11-27T22:39:28.445Z,5.18
2022-11-27T22:41:55.148Z,4.97
2022-11-27T22:44:22.080Z,5.50
2022-11-27T22:46:49.225Z,5.43
2022-11-27T22:49:18.358Z,4.88
2022-11-27T22:51:45.776Z,5.40
2022-11-27T22:54:17.019Z,4.90
2022-11-27T22:56:45.716Z,5.05
2022-11-27T23:02:00.300Z,5.18
2022-11-27T23:04:27.608Z,4.85
2022-11-27T23:06:54.226Z,5.57
2022-11-27T23:09:21.021Z,5.00
2022-11-27T23:11:48.038Z,5.72
2022-11-27T23:14:14.844Z,5.75
2022-11-27T23:16:41.579Z,5.55
2022-11-27T23:19:09.303Z,5.50
2022-11-27T23:21:37.682Z,4.78
2022-11-27T23:24:05.592Z,5.22
2022-11-27T23:26:32.527Z,5.43
2022-11-27T23:28:59.082Z,4.95
2022-11-27T23:31:30.371Z,5.13
2022-11-27T23:33:58.914Z,5.68
2022-11-27T23:36:25.737Z,5.35
2022-11-27T23:38:52.401Z,4.68
2022-11-27T23:41:22.100Z,5.10
2022-11-27T23:43:49.646Z,4.88
2022-11-27T23:46:18.089Z,5.43
2022-11-27T23:48:45.082Z,4.85
2022-11-27T23:51:14.618Z,5.10
2022-11-27T23:53:41.653Z,5.13
2022-11-27T23:56:11.135Z,4.85
2022-11-27T23:58:41.150Z,5.43
